Terminal Aerodrome Forecast
Issued by NWS

Home | Current Version | Previous Version | Text Only | Print | Product List | Glossary Off
Versions: 1 2 3 4 5 6 7 8 9 10 11 12 13 14 15 16 17 18 19 20 21 22 23 24 25 26

000
FTUS43 KGRB 210500
TAFAUW
TAF
KAUW 210527Z 2106/2206 09003KT 6SM BR SCT025 BKN200
      TEMPO 2106/2110 3SM BR SCT002
     FM211000 11003KT 6SM BR SCT035 BKN090
     FM211600 14007KT 6SM HZ VCSH SCT035 BKN080
      TEMPO 2120/2124 2SM TSRA BKN020CB OVC035
     FM220000 11004KT 5SM BR VCSH SCT015 BKN035
     FM220400 VRB03KT 2SM BR BKN004 BKN012=

USA.gov is the U.S. government's official web portal to all federal, state and local government web resources and services.